GLO1460 SBPV-SBEG
Flight info
| Callsign | GLO1460 |
|---|---|
| Flight time | 1h 11m |
| Altitude | 37000 |
| Route | MUPEG UZ74 IGAPO |
| Aircraft | B38M/L-L/2000 |
Departure
| Time | 2026-04-24 00:18 |
|---|---|
| Airport | Governador Jorge Teixeira de Oliveira International Airport (SBPV) |
Arrival
| Time | 2026-04-24 01:29 |
|---|---|
| Airport | Eduardo Gomes International Airport (SBEG) |
| Time | Latitude | Longitude | Altitude | Speed | Heading |
|---|---|---|---|---|---|
| 2026-04-23 23:46 | -8.71467 | -63.89936 | 300 ft | 0 kts | 87° |
| 2026-04-23 23:59 | -8.71467 | -63.89943 | 300 ft | 2 kts | 87° |
| 2026-04-23 23:59 | -8.71468 | -63.89959 | 300 ft | 2 kts | 87° |
| 2026-04-24 00:00 | -8.71469 | -63.89974 | 300 ft | 2 kts | 87° |
| 2026-04-24 00:00 | -8.71470 | -63.89989 | 300 ft | 2 kts | 86° |
| 2026-04-24 00:00 | -8.71471 | -63.90004 | 300 ft | 2 kts | 87° |
| 2026-04-24 00:00 | -8.71471 | -63.90013 | 300 ft | 2 kts | 83° |
| 2026-04-24 00:01 | -8.71476 | -63.90028 | 300 ft | 2 kts | 60° |
| 2026-04-24 00:01 | -8.71485 | -63.90041 | 300 ft | 2 kts | 43° |
| 2026-04-24 00:01 | -8.71497 | -63.90049 | 300 ft | 2 kts | 26° |
| 2026-04-24 00:01 | -8.71511 | -63.90054 | 300 ft | 2 kts | 8° |
| 2026-04-24 00:02 | -8.71520 | -63.90055 | 300 ft | 1 kts | 358° |
| 2026-04-24 00:02 | -8.71526 | -63.90054 | 300 ft | 0 kts | 356° |
| 2026-04-24 00:12 | -8.71524 | -63.90054 | 300 ft | 1 kts | 356° |
| 2026-04-24 00:13 | -8.71502 | -63.90056 | 300 ft | 5 kts | 356° |
| 2026-04-24 00:13 | -8.71454 | -63.90059 | 300 ft | 8 kts | 356° |
| 2026-04-24 00:13 | -8.71377 | -63.90064 | 300 ft | 12 kts | 357° |
| 2026-04-24 00:13 | -8.71275 | -63.90065 | 300 ft | 16 kts | 358° |
| 2026-04-24 00:14 | -8.71151 | -63.90075 | 300 ft | 19 kts | 355° |
| 2026-04-24 00:14 | -8.71018 | -63.90084 | 300 ft | 18 kts | 357° |
| 2026-04-24 00:14 | -8.70887 | -63.90090 | 300 ft | 18 kts | 358° |
| 2026-04-24 00:14 | -8.70764 | -63.90096 | 300 ft | 17 kts | 356° |
| 2026-04-24 00:15 | -8.70644 | -63.90102 | 300 ft | 16 kts | 356° |
| 2026-04-24 00:15 | -8.70526 | -63.90112 | 300 ft | 18 kts | 355° |
| 2026-04-24 00:15 | -8.70393 | -63.90120 | 300 ft | 20 kts | 357° |
| 2026-04-24 00:15 | -8.70246 | -63.90126 | 300 ft | 21 kts | 356° |
| 2026-04-24 00:16 | -8.70103 | -63.90136 | 300 ft | 20 kts | 355° |
| 2026-04-24 00:16 | -8.69972 | -63.90161 | 300 ft | 17 kts | 326° |
| 2026-04-24 00:16 | -8.69887 | -63.90244 | 300 ft | 16 kts | 313° |
| 2026-04-24 00:16 | -8.69874 | -63.90296 | 300 ft | 4 kts | 206° |
| 2026-04-24 00:17 | -8.69877 | -63.90297 | 300 ft | 0 kts | 177° |
| 2026-04-24 00:17 | -8.69930 | -63.90295 | 300 ft | 26 kts | 178° |
| 2026-04-24 00:17 | -8.70408 | -63.90264 | 300 ft | 107 kts | 176° |
| 2026-04-24 00:17 | -8.71388 | -63.90205 | 310 ft | 171 kts | 175° |
| 2026-04-24 00:18 | -8.72630 | -63.90103 | 823 ft | 188 kts | 174° |
| 2026-04-24 00:18 | -8.73946 | -63.90007 | 1627 ft | 193 kts | 172° |
| 2026-04-24 00:18 | -8.75319 | -63.89853 | 2191 ft | 207 kts | 175° |
| 2026-04-24 00:18 | -8.76818 | -63.89776 | 2651 ft | 224 kts | 176° |
| 2026-04-24 00:19 | -8.78417 | -63.89471 | 2830 ft | 253 kts | 151° |
| 2026-04-24 00:19 | -8.79691 | -63.88196 | 3383 ft | 263 kts | 116° |
| 2026-04-24 00:19 | -8.80127 | -63.86406 | 4143 ft | 266 kts | 90° |
| 2026-04-24 00:19 | -8.79795 | -63.84575 | 4898 ft | 271 kts | 66° |
| 2026-04-24 00:20 | -8.78678 | -63.83097 | 5737 ft | 272 kts | 38° |
| 2026-04-24 00:20 | -8.76992 | -63.82204 | 6272 ft | 286 kts | 16° |
| 2026-04-24 00:20 | -8.75049 | -63.82072 | 7153 ft | 286 kts | 0° |
| 2026-04-24 00:20 | -8.73053 | -63.82114 | 7930 ft | 288 kts | 4° |
| 2026-04-24 00:21 | -8.71080 | -63.81881 | 8780 ft | 286 kts | 13° |
| 2026-04-24 00:21 | -8.69139 | -63.81381 | 9583 ft | 287 kts | 18° |
| 2026-04-24 00:21 | -8.67243 | -63.80787 | 10338 ft | 290 kts | 20° |
| 2026-04-24 00:21 | -8.65282 | -63.80151 | 10626 ft | 310 kts | 20° |
| 2026-04-24 00:22 | -8.63132 | -63.79459 | 10922 ft | 328 kts | 19° |
| 2026-04-24 00:22 | -8.60941 | -63.78763 | 11560 ft | 334 kts | 19° |
| 2026-04-24 00:22 | -8.58724 | -63.78062 | 12246 ft | 338 kts | 19° |
| 2026-04-24 00:22 | -8.56462 | -63.77344 | 12968 ft | 341 kts | 20° |
| 2026-04-24 00:23 | -8.54296 | -63.76406 | 13671 ft | 342 kts | 29° |
| 2026-04-24 00:23 | -8.52208 | -63.75236 | 14389 ft | 344 kts | 31° |
| 2026-04-24 00:23 | -8.50127 | -63.73996 | 15093 ft | 348 kts | 32° |
| 2026-04-24 00:23 | -8.48049 | -63.72751 | 15779 ft | 351 kts | 32° |
| 2026-04-24 00:24 | -8.45941 | -63.71494 | 16443 ft | 354 kts | 31° |
| 2026-04-24 00:24 | -8.43812 | -63.70229 | 17089 ft | 357 kts | 31° |
| 2026-04-24 00:24 | -8.41687 | -63.68970 | 17713 ft | 360 kts | 31° |
| 2026-04-24 00:24 | -8.39454 | -63.67649 | 18350 ft | 363 kts | 31° |
| 2026-04-24 00:25 | -8.37247 | -63.66344 | 18952 ft | 366 kts | 31° |
| 2026-04-24 00:25 | -8.35061 | -63.65052 | 19535 ft | 369 kts | 31° |
| 2026-04-24 00:25 | -8.32832 | -63.63735 | 20105 ft | 372 kts | 31° |
| 2026-04-24 00:25 | -8.30521 | -63.62369 | 20673 ft | 376 kts | 31° |
| 2026-04-24 00:26 | -8.28315 | -63.61066 | 21199 ft | 378 kts | 31° |
| 2026-04-24 00:26 | -8.26062 | -63.59716 | 21711 ft | 381 kts | 32° |
| 2026-04-24 00:26 | -8.23799 | -63.58241 | 22225 ft | 384 kts | 33° |
| 2026-04-24 00:26 | -8.21581 | -63.56751 | 22712 ft | 387 kts | 33° |
| 2026-04-24 00:27 | -8.19346 | -63.55244 | 23189 ft | 390 kts | 33° |
| 2026-04-24 00:27 | -8.17071 | -63.53709 | 23662 ft | 393 kts | 33° |
| 2026-04-24 00:27 | -8.14786 | -63.52169 | 24117 ft | 396 kts | 33° |
| 2026-04-24 00:27 | -8.12507 | -63.50634 | 24564 ft | 398 kts | 33° |
| 2026-04-24 00:28 | -8.10181 | -63.49068 | 24996 ft | 401 kts | 33° |
| 2026-04-24 00:28 | -8.07868 | -63.47512 | 25420 ft | 404 kts | 33° |
| 2026-04-24 00:28 | -8.05525 | -63.45935 | 25826 ft | 406 kts | 33° |
| 2026-04-24 00:28 | -8.03183 | -63.44360 | 26228 ft | 409 kts | 33° |
| 2026-04-24 00:29 | -8.00818 | -63.42770 | 26615 ft | 411 kts | 33° |
| 2026-04-24 00:29 | -7.98424 | -63.41159 | 26998 ft | 414 kts | 33° |
| 2026-04-24 00:29 | -7.96034 | -63.39553 | 27368 ft | 416 kts | 33° |
| 2026-04-24 00:29 | -7.93607 | -63.37921 | 27733 ft | 419 kts | 33° |
| 2026-04-24 00:30 | -7.91183 | -63.36292 | 28087 ft | 421 kts | 33° |
| 2026-04-24 00:30 | -7.88736 | -63.34648 | 28435 ft | 424 kts | 33° |
| 2026-04-24 00:30 | -7.86258 | -63.32983 | 28785 ft | 426 kts | 33° |
| 2026-04-24 00:30 | -7.83794 | -63.31329 | 29116 ft | 429 kts | 32° |
| 2026-04-24 00:31 | -7.81307 | -63.29660 | 29446 ft | 431 kts | 32° |
| 2026-04-24 00:31 | -7.79001 | -63.28112 | 29742 ft | 433 kts | 32° |
| 2026-04-24 00:31 | -7.76418 | -63.26378 | 30119 ft | 434 kts | 32° |
| 2026-04-24 00:31 | -7.73918 | -63.24700 | 30528 ft | 433 kts | 32° |
| 2026-04-24 00:32 | -7.71434 | -63.23032 | 30927 ft | 433 kts | 32° |
| 2026-04-24 00:32 | -7.68870 | -63.21311 | 31338 ft | 432 kts | 32° |
| 2026-04-24 00:32 | -7.66362 | -63.19627 | 31740 ft | 431 kts | 32° |
| 2026-04-24 00:32 | -7.63888 | -63.17967 | 32125 ft | 431 kts | 32° |
| 2026-04-24 00:33 | -7.61396 | -63.16294 | 32501 ft | 430 kts | 32° |
| 2026-04-24 00:33 | -7.58906 | -63.14624 | 32836 ft | 429 kts | 32° |
| 2026-04-24 00:33 | -7.53906 | -63.11269 | 32885 ft | 430 kts | 32° |
| 2026-04-24 00:34 | -7.48933 | -63.07938 | 32886 ft | 428 kts | 32° |
| 2026-04-24 00:34 | -7.43936 | -63.04603 | 32885 ft | 430 kts | 32° |
| 2026-04-24 00:35 | -7.38935 | -63.01266 | 32885 ft | 431 kts | 32° |
| 2026-04-24 00:35 | -7.33920 | -62.97918 | 32885 ft | 432 kts | 32° |
| 2026-04-24 00:36 | -7.28889 | -62.94561 | 32885 ft | 433 kts | 32° |
| 2026-04-24 00:36 | -7.23885 | -62.91222 | 32885 ft | 433 kts | 32° |
| 2026-04-24 00:37 | -7.18822 | -62.87843 | 32885 ft | 434 kts | 32° |
| 2026-04-24 00:37 | -7.13819 | -62.84506 | 32885 ft | 434 kts | 32° |
| 2026-04-24 00:38 | -7.08776 | -62.81144 | 32885 ft | 434 kts | 32° |
| 2026-04-24 00:38 | -7.03730 | -62.77780 | 32885 ft | 434 kts | 32° |
| 2026-04-24 00:39 | -6.98692 | -62.74423 | 32884 ft | 431 kts | 33° |
| 2026-04-24 00:39 | -6.93700 | -62.71105 | 32885 ft | 429 kts | 33° |
| 2026-04-24 00:40 | -6.88730 | -62.67788 | 32885 ft | 431 kts | 34° |
| 2026-04-24 00:40 | -6.83693 | -62.64408 | 32885 ft | 433 kts | 34° |
| 2026-04-24 00:41 | -6.78675 | -62.61029 | 32884 ft | 432 kts | 34° |
| 2026-04-24 00:41 | -6.73691 | -62.57680 | 32885 ft | 432 kts | 34° |
| 2026-04-24 00:42 | -6.68682 | -62.54316 | 32885 ft | 432 kts | 34° |
| 2026-04-24 00:42 | -6.63671 | -62.50953 | 32885 ft | 432 kts | 34° |
| 2026-04-24 00:43 | -6.58669 | -62.47598 | 32885 ft | 432 kts | 34° |
| 2026-04-24 00:43 | -6.53658 | -62.44239 | 32885 ft | 432 kts | 34° |
| 2026-04-24 00:44 | -6.48759 | -62.40972 | 32885 ft | 432 kts | 34° |
| 2026-04-24 00:44 | -6.43727 | -62.37647 | 32885 ft | 432 kts | 34° |
| 2026-04-24 00:45 | -6.38670 | -62.34304 | 32885 ft | 432 kts | 34° |
| 2026-04-24 00:45 | -6.33516 | -62.30895 | 32885 ft | 432 kts | 34° |
| 2026-04-24 00:46 | -6.28393 | -62.27507 | 32885 ft | 432 kts | 34° |
| 2026-04-24 00:46 | -6.23258 | -62.24111 | 32885 ft | 432 kts | 34° |
| 2026-04-24 00:47 | -6.18135 | -62.20723 | 32885 ft | 432 kts | 34° |
| 2026-04-24 00:47 | -6.12997 | -62.17327 | 32885 ft | 432 kts | 34° |
| 2026-04-24 00:48 | -6.07877 | -62.13942 | 32885 ft | 432 kts | 34° |
| 2026-04-24 00:48 | -6.02726 | -62.10538 | 32886 ft | 432 kts | 34° |
| 2026-04-24 00:49 | -5.97771 | -62.07264 | 32890 ft | 432 kts | 34° |
| 2026-04-24 00:49 | -5.92629 | -62.03867 | 32896 ft | 432 kts | 34° |
| 2026-04-24 00:50 | -5.87471 | -62.00462 | 32903 ft | 432 kts | 34° |
| 2026-04-24 00:50 | -5.82372 | -61.97094 | 32908 ft | 432 kts | 34° |
| 2026-04-24 00:51 | -5.77281 | -61.93734 | 32911 ft | 432 kts | 34° |
| 2026-04-24 00:51 | -5.72171 | -61.90362 | 32912 ft | 432 kts | 34° |
| 2026-04-24 00:52 | -5.67068 | -61.86995 | 32912 ft | 432 kts | 34° |
| 2026-04-24 00:52 | -5.61946 | -61.83620 | 32911 ft | 432 kts | 33° |
| 2026-04-24 00:53 | -5.56717 | -61.80645 | 32912 ft | 432 kts | 29° |
| 2026-04-24 00:53 | -5.51439 | -61.77799 | 32912 ft | 432 kts | 29° |
| 2026-04-24 00:54 | -5.46139 | -61.74951 | 32912 ft | 432 kts | 28° |
| 2026-04-24 00:54 | -5.40848 | -61.72110 | 32912 ft | 432 kts | 28° |
| 2026-04-24 00:55 | -5.35576 | -61.69282 | 32912 ft | 432 kts | 28° |
| 2026-04-24 00:55 | -5.30283 | -61.66443 | 32912 ft | 432 kts | 28° |
| 2026-04-24 00:56 | -5.25001 | -61.63611 | 32912 ft | 432 kts | 28° |
| 2026-04-24 00:56 | -5.19720 | -61.60781 | 32912 ft | 432 kts | 28° |
| 2026-04-24 00:57 | -5.14438 | -61.57950 | 32912 ft | 432 kts | 28° |
| 2026-04-24 00:58 | -5.06501 | -61.53698 | 32912 ft | 433 kts | 29° |
| 2026-04-24 00:58 | -5.01152 | -61.50833 | 32912 ft | 435 kts | 29° |
| 2026-04-24 00:59 | -4.95808 | -61.47971 | 32912 ft | 438 kts | 29° |
| 2026-04-24 00:59 | -4.90457 | -61.45106 | 32912 ft | 439 kts | 29° |
| 2026-04-24 01:00 | -4.85056 | -61.42215 | 32911 ft | 438 kts | 29° |
| 2026-04-24 01:00 | -4.79706 | -61.39352 | 32912 ft | 438 kts | 29° |
| 2026-04-24 01:01 | -4.74339 | -61.36480 | 32912 ft | 438 kts | 29° |
| 2026-04-24 01:01 | -4.68975 | -61.33610 | 32912 ft | 438 kts | 29° |
| 2026-04-24 01:02 | -4.63586 | -61.30727 | 32912 ft | 438 kts | 29° |
| 2026-04-24 01:02 | -4.58229 | -61.27862 | 32912 ft | 438 kts | 29° |
| 2026-04-24 01:03 | -4.52865 | -61.24994 | 32912 ft | 438 kts | 29° |
| 2026-04-24 01:03 | -4.47516 | -61.22134 | 32912 ft | 438 kts | 29° |
| 2026-04-24 01:04 | -4.42146 | -61.19264 | 32872 ft | 436 kts | 29° |
| 2026-04-24 01:04 | -4.39499 | -61.17850 | 32389 ft | 431 kts | 29° |
| 2026-04-24 01:04 | -4.36874 | -61.16447 | 31572 ft | 432 kts | 29° |
| 2026-04-24 01:04 | -4.34250 | -61.15046 | 31026 ft | 426 kts | 29° |
| 2026-04-24 01:05 | -4.31632 | -61.13647 | 30536 ft | 419 kts | 29° |
| 2026-04-24 01:05 | -4.29068 | -61.12277 | 30009 ft | 423 kts | 29° |
| 2026-04-24 01:05 | -4.26483 | -61.10896 | 29460 ft | 422 kts | 29° |
| 2026-04-24 01:05 | -4.23918 | -61.09526 | 28913 ft | 416 kts | 29° |
| 2026-04-24 01:06 | -4.21385 | -61.08173 | 28379 ft | 410 kts | 29° |
| 2026-04-24 01:06 | -4.18894 | -61.06844 | 27852 ft | 405 kts | 29° |
| 2026-04-24 01:06 | -4.16428 | -61.05526 | 27334 ft | 407 kts | 29° |
| 2026-04-24 01:06 | -4.13941 | -61.04198 | 26801 ft | 407 kts | 29° |
| 2026-04-24 01:07 | -4.11470 | -61.02879 | 26265 ft | 402 kts | 29° |
| 2026-04-24 01:07 | -4.09007 | -61.01564 | 25739 ft | 397 kts | 29° |
| 2026-04-24 01:07 | -4.06606 | -61.00282 | 25223 ft | 392 kts | 29° |
| 2026-04-24 01:07 | -4.04234 | -60.99017 | 24712 ft | 388 kts | 29° |
| 2026-04-24 01:08 | -4.01836 | -60.97736 | 24205 ft | 393 kts | 29° |
| 2026-04-24 01:08 | -3.99438 | -60.96456 | 23674 ft | 389 kts | 29° |
| 2026-04-24 01:08 | -3.97104 | -60.95210 | 23165 ft | 384 kts | 29° |
| 2026-04-24 01:08 | -3.94737 | -60.93947 | 22653 ft | 379 kts | 29° |
| 2026-04-24 01:09 | -3.92430 | -60.92716 | 22150 ft | 374 kts | 30° |
| 2026-04-24 01:09 | -3.90167 | -60.91509 | 21659 ft | 369 kts | 30° |
| 2026-04-24 01:09 | -3.87904 | -60.90302 | 21170 ft | 371 kts | 30° |
| 2026-04-24 01:09 | -3.85604 | -60.89074 | 20663 ft | 370 kts | 30° |
| 2026-04-24 01:10 | -3.83380 | -60.87888 | 20169 ft | 365 kts | 30° |
| 2026-04-24 01:10 | -3.81136 | -60.86691 | 19677 ft | 360 kts | 30° |
| 2026-04-24 01:10 | -3.78942 | -60.85521 | 19193 ft | 355 kts | 30° |
| 2026-04-24 01:10 | -3.76800 | -60.84379 | 18719 ft | 351 kts | 30° |
| 2026-04-24 01:11 | -3.74635 | -60.83225 | 18265 ft | 351 kts | 30° |
| 2026-04-24 01:11 | -3.72460 | -60.82065 | 17794 ft | 352 kts | 30° |
| 2026-04-24 01:11 | -3.70384 | -60.80832 | 17305 ft | 346 kts | 36° |
| 2026-04-24 01:11 | -3.68448 | -60.79443 | 16845 ft | 341 kts | 39° |
| 2026-04-24 01:12 | -3.66578 | -60.78036 | 16383 ft | 336 kts | 39° |
| 2026-04-24 01:12 | -3.64721 | -60.76634 | 15926 ft | 332 kts | 39° |
| 2026-04-24 01:12 | -3.62871 | -60.75244 | 15479 ft | 335 kts | 39° |
| 2026-04-24 01:12 | -3.61030 | -60.73864 | 15020 ft | 333 kts | 39° |
| 2026-04-24 01:13 | -3.59194 | -60.72491 | 14560 ft | 328 kts | 39° |
| 2026-04-24 01:13 | -3.57381 | -60.71137 | 14113 ft | 323 kts | 39° |
| 2026-04-24 01:13 | -3.55601 | -60.69809 | 13673 ft | 319 kts | 39° |
| 2026-04-24 01:13 | -3.53834 | -60.68489 | 13237 ft | 319 kts | 39° |
| 2026-04-24 01:14 | -3.52053 | -60.67158 | 12796 ft | 320 kts | 39° |
| 2026-04-24 01:14 | -3.50266 | -60.65825 | 12343 ft | 315 kts | 39° |
| 2026-04-24 01:14 | -3.48526 | -60.64527 | 11911 ft | 310 kts | 39° |
| 2026-04-24 01:14 | -3.46818 | -60.63253 | 11485 ft | 306 kts | 39° |
| 2026-04-24 01:15 | -3.45116 | -60.61982 | 11068 ft | 310 kts | 38° |
| 2026-04-24 01:15 | -3.43404 | -60.60703 | 10631 ft | 307 kts | 38° |
| 2026-04-24 01:15 | -3.41710 | -60.59440 | 10346 ft | 297 kts | 38° |
| 2026-04-24 01:15 | -3.40105 | -60.58245 | 10304 ft | 281 kts | 38° |
| 2026-04-24 01:16 | -3.38582 | -60.57109 | 10267 ft | 266 kts | 39° |
| 2026-04-24 01:16 | -3.37088 | -60.55993 | 10264 ft | 270 kts | 39° |
| 2026-04-24 01:16 | -3.35588 | -60.54873 | 10007 ft | 266 kts | 39° |
| 2026-04-24 01:16 | -3.34123 | -60.53778 | 9655 ft | 265 kts | 39° |
| 2026-04-24 01:17 | -3.32654 | -60.52681 | 9339 ft | 262 kts | 39° |
| 2026-04-24 01:17 | -3.31200 | -60.51595 | 9027 ft | 260 kts | 38° |
| 2026-04-24 01:17 | -3.29761 | -60.50521 | 8718 ft | 258 kts | 38° |
| 2026-04-24 01:17 | -3.28335 | -60.49455 | 8413 ft | 255 kts | 38° |
| 2026-04-24 01:18 | -3.26927 | -60.48404 | 8112 ft | 253 kts | 38° |
| 2026-04-24 01:18 | -3.25514 | -60.47349 | 7809 ft | 251 kts | 38° |
| 2026-04-24 01:18 | -3.24109 | -60.46304 | 7506 ft | 250 kts | 38° |
| 2026-04-24 01:18 | -3.22732 | -60.45279 | 7211 ft | 249 kts | 38° |
| 2026-04-24 01:19 | -3.21313 | -60.44221 | 6915 ft | 253 kts | 38° |
| 2026-04-24 01:19 | -3.19902 | -60.43170 | 6599 ft | 252 kts | 38° |
| 2026-04-24 01:19 | -3.18509 | -60.42133 | 6301 ft | 250 kts | 38° |
| 2026-04-24 01:19 | -3.17136 | -60.41111 | 6006 ft | 248 kts | 38° |
| 2026-04-24 01:20 | -3.15753 | -60.40081 | 5709 ft | 246 kts | 38° |
| 2026-04-24 01:20 | -3.14399 | -60.39072 | 5416 ft | 244 kts | 38° |
| 2026-04-24 01:20 | -3.13026 | -60.38050 | 5120 ft | 242 kts | 38° |
| 2026-04-24 01:20 | -3.11692 | -60.37056 | 4840 ft | 240 kts | 38° |
| 2026-04-24 01:21 | -3.10379 | -60.36078 | 4586 ft | 233 kts | 38° |
| 2026-04-24 01:21 | -3.09110 | -60.35134 | 4488 ft | 217 kts | 38° |
| 2026-04-24 01:21 | -3.07936 | -60.34259 | 4353 ft | 204 kts | 38° |
| 2026-04-24 01:21 | -3.06840 | -60.33442 | 4240 ft | 192 kts | 38° |
| 2026-04-24 01:22 | -3.05815 | -60.32671 | 4171 ft | 175 kts | 40° |
| 2026-04-24 01:22 | -3.04970 | -60.31841 | 4021 ft | 169 kts | 52° |
| 2026-04-24 01:22 | -3.04298 | -60.30900 | 3997 ft | 165 kts | 58° |
| 2026-04-24 01:22 | -3.03923 | -60.29826 | 4010 ft | 158 kts | 83° |
| 2026-04-24 01:23 | -3.03861 | -60.28773 | 3982 ft | 148 kts | 89° |
| 2026-04-24 01:23 | -3.03843 | -60.27751 | 3983 ft | 144 kts | 89° |
| 2026-04-24 01:23 | -3.03835 | -60.26745 | 4008 ft | 146 kts | 90° |
| 2026-04-24 01:23 | -3.03831 | -60.25713 | 4007 ft | 150 kts | 90° |
| 2026-04-24 01:24 | -3.03830 | -60.24662 | 3906 ft | 151 kts | 90° |
| 2026-04-24 01:24 | -3.03830 | -60.23620 | 3702 ft | 149 kts | 90° |
| 2026-04-24 01:24 | -3.03831 | -60.22602 | 3549 ft | 148 kts | 90° |
| 2026-04-24 01:24 | -3.03833 | -60.21562 | 3345 ft | 149 kts | 90° |
| 2026-04-24 01:25 | -3.03835 | -60.20528 | 3133 ft | 148 kts | 90° |
| 2026-04-24 01:25 | -3.03836 | -60.19496 | 2931 ft | 147 kts | 90° |
| 2026-04-24 01:25 | -3.03838 | -60.18473 | 2728 ft | 147 kts | 90° |
| 2026-04-24 01:25 | -3.03840 | -60.17448 | 2524 ft | 147 kts | 90° |
| 2026-04-24 01:26 | -3.03842 | -60.16420 | 2320 ft | 147 kts | 90° |
| 2026-04-24 01:26 | -3.03844 | -60.15392 | 2117 ft | 147 kts | 90° |
| 2026-04-24 01:26 | -3.03846 | -60.14377 | 1917 ft | 146 kts | 90° |
| 2026-04-24 01:26 | -3.03848 | -60.13364 | 1718 ft | 146 kts | 90° |
| 2026-04-24 01:27 | -3.03850 | -60.12342 | 1514 ft | 144 kts | 90° |
| 2026-04-24 01:27 | -3.03852 | -60.11342 | 1322 ft | 143 kts | 90° |
| 2026-04-24 01:27 | -3.03853 | -60.10347 | 1130 ft | 143 kts | 90° |
| 2026-04-24 01:27 | -3.03855 | -60.09350 | 937 ft | 143 kts | 90° |
| 2026-04-24 01:28 | -3.03857 | -60.08358 | 746 ft | 143 kts | 90° |
| 2026-04-24 01:28 | -3.03855 | -60.07354 | 539 ft | 144 kts | 89° |
| 2026-04-24 01:28 | -3.03853 | -60.06344 | 339 ft | 144 kts | 90° |
| 2026-04-24 01:28 | -3.03858 | -60.05403 | 274 ft | 112 kts | 89° |
| 2026-04-24 01:29 | -3.03860 | -60.04840 | 273 ft | 63 kts | 90° |
| 2026-04-24 01:29 | -3.03862 | -60.04452 | 273 ft | 54 kts | 90° |
| 2026-04-24 01:29 | -3.03864 | -60.04141 | 273 ft | 23 kts | 90° |
| 2026-04-24 01:29 | -3.03864 | -60.03983 | 273 ft | 22 kts | 90° |
| 2026-04-24 01:30 | -3.03862 | -60.03830 | 273 ft | 18 kts | 76° |
| 2026-04-24 01:30 | -3.03769 | -60.03771 | 273 ft | 16 kts | 356° |
| 2026-04-24 01:30 | -3.03692 | -60.03833 | 273 ft | 14 kts | 292° |
| 2026-04-24 01:30 | -3.03662 | -60.03941 | 273 ft | 17 kts | 285° |
| 2026-04-24 01:31 | -3.03630 | -60.04066 | 273 ft | 18 kts | 285° |
| 2026-04-24 01:31 | -3.03595 | -60.04190 | 273 ft | 17 kts | 289° |
| 2026-04-24 01:31 | -3.03539 | -60.04287 | 273 ft | 14 kts | 309° |
| 2026-04-24 01:31 | -3.03463 | -60.04347 | 273 ft | 13 kts | 333° |
| 2026-04-24 01:32 | -3.03374 | -60.04379 | 273 ft | 13 kts | 344° |
| 2026-04-24 01:32 | -3.03340 | -60.04440 | 273 ft | 11 kts | 261° |
| 2026-04-24 01:32 | -3.03308 | -60.04490 | 273 ft | 9 kts | 350° |
| 2026-04-24 01:32 | -3.03266 | -60.04498 | 273 ft | 0 kts | 349° |